Time;durP1;ratioP1;P1;durP2;ratioP2;P2;SDS_P1;SDS_P2;PMS_P1;PMS_P2;Temp;Humidity;BMP_temperature;BMP_pressure;BME280_temperature;BME280_humidity;BME280_pressure;Samples;Min_cycle;Max_cycle;Signal;HPM_P1;HPM_P2
2022/10/17 00:01:21;;;;;;;0.87;0.70;;;;;;;;;;5044616;27;88723;-52
2022/10/17 00:03:49;;;;;;;1.00;1.00;;;;;;;;;;5044470;27;86868;-53
2022/10/17 00:06:19;;;;;;;0.93;0.83;;;;;;;;;;5044537;27;87074;-53
2022/10/17 00:08:47;;;;;;;0.83;0.83;;;;;;;;;;5043993;27;88771;-53
2022/10/17 00:11:16;;;;;;;1.07;0.77;;;;;;;;;;5044209;27;88838;-53
2022/10/17 00:13:44;;;;;;;1.07;0.87;;;;;;;;;;5044070;27;86910;-54
2022/10/17 00:16:12;;;;;;;0.50;0.40;;;;;;;;;;5044473;27;87159;-55
2022/10/17 00:18:41;;;;;;;0.63;0.63;;;;;;;;;;5050754;27;87946;-53
2022/10/17 00:21:15;;;;;;;1.10;0.90;;;;;;;;;;5052802;27;88998;-52
2022/10/17 00:23:45;;;;;;;1.07;0.97;;;;;;;;;;5046562;27;87043;-52
2022/10/17 00:26:13;;;;;;;0.67;0.50;;;;;;;;;;5063324;27;86267;-53
2022/10/17 00:28:41;;;;;;;1.37;0.93;;;;;;;;;;5063640;27;88008;-54
2022/10/17 00:31:09;;;;;;;0.97;0.90;;;;;;;;;;5052762;27;88891;-55
2022/10/17 00:33:38;;;;;;;1.43;0.87;;;;;;;;;;5044092;27;87950;-53
2022/10/17 00:36:07;;;;;;;0.90;0.90;;;;;;;;;;5045436;27;87013;-52
2022/10/17 00:38:35;;;;;;;1.00;0.73;;;;;;;;;;5044920;27;88872;-53
2022/10/17 00:41:05;;;;;;;1.53;0.93;;;;;;;;;;5054948;27;88775;-55
2022/10/17 00:43:48;;;;;;;1.37;1.07;;;;;;;;;;5064892;27;87015;-53
2022/10/17 00:46:16;;;;;;;0.60;0.60;;;;;;;;;;5060703;27;87013;-53
2022/10/17 00:48:44;;;;;;;2.30;0.90;;;;;;;;;;5053044;27;87733;-53
2022/10/17 00:51:13;;;;;;;4.27;1.10;;;;;;;;;;5057694;27;87816;-53
2022/10/17 00:53:41;;;;;;;2.30;1.00;;;;;;;;;;5045718;27;86970;-53
2022/10/17 00:56:11;;;;;;;1.27;0.70;;;;;;;;;;5043965;27;86916;-53
2022/10/17 00:58:39;;;;;;;1.17;0.70;;;;;;;;;;5053672;27;91053;-53
2022/10/17 01:01:07;;;;;;;1.53;0.80;;;;;;;;;;5059261;27;88359;-53
2022/10/17 01:03:35;;;;;;;0.73;0.70;;;;;;;;;;5054404;27;86814;-53
2022/10/17 01:06:04;;;;;;;0.87;0.87;;;;;;;;;;5045816;27;87763;-55
2022/10/17 01:08:32;;;;;;;1.37;1.03;;;;;;;;;;5063216;27;88069;-53
2022/10/17 01:11:02;;;;;;;1.03;0.93;;;;;;;;;;5048855;27;87861;-53
2022/10/17 01:13:34;;;;;;;1.37;0.80;;;;;;;;;;5049863;27;86967;-55
2022/10/17 01:16:05;;;;;;;1.90;0.93;;;;;;;;;;5051356;27;86321;-52
2022/10/17 01:18:35;;;;;;;0.93;0.90;;;;;;;;;;5058548;27;87862;-53
2022/10/17 01:21:08;;;;;;;1.37;0.83;;;;;;;;;;5048109;27;87640;-53
2022/10/17 01:23:54;;;;;;;3.47;1.10;;;;;;;;;;5042878;27;87835;-53
2022/10/17 01:26:24;;;;;;;2.03;0.83;;;;;;;;;;5043310;27;87075;-53
2022/10/17 01:29:07;;;;;;;3.80;1.07;;;;;;;;;;5042855;27;88296;-53
2022/10/17 01:31:37;;;;;;;1.20;0.90;;;;;;;;;;5042129;27;87434;-53
2022/10/17 01:34:06;;;;;;;1.03;0.93;;;;;;;;;;5043138;27;88793;-52
2022/10/17 01:36:37;;;;;;;1.20;1.10;;;;;;;;;;5042929;27;87064;-53
2022/10/17 01:39:08;;;;;;;1.10;1.00;;;;;;;;;;5042614;27;88879;-53
2022/10/17 01:41:38;;;;;;;1.03;0.70;;;;;;;;;;5043242;27;87500;-54
2022/10/17 01:44:09;;;;;;;1.23;0.90;;;;;;;;;;5042637;27;88959;-53
2022/10/17 01:46:38;;;;;;;1.37;1.07;;;;;;;;;;5043047;27;87039;-53
2022/10/17 01:49:07;;;;;;;1.53;1.00;;;;;;;;;;5046900;27;89031;-53
2022/10/17 01:51:37;;;;;;;1.80;1.30;;;;;;;;;;5061828;27;88535;-52
2022/10/17 01:54:06;;;;;;;2.80;1.33;;;;;;;;;;5061485;27;87077;-55
2022/10/17 01:56:35;;;;;;;1.10;1.00;;;;;;;;;;5055511;27;88545;-53
2022/10/17 01:59:03;;;;;;;2.57;1.30;;;;;;;;;;5044899;27;87683;-55
2022/10/17 02:01:32;;;;;;;0.80;0.80;;;;;;;;;;5042380;27;87003;-54
2022/10/17 02:04:01;;;;;;;3.80;0.80;;;;;;;;;;5053663;27;87106;-54
2022/10/17 02:06:30;;;;;;;2.00;0.90;;;;;;;;;;5063036;27;86187;-55
2022/10/17 02:08:58;;;;;;;2.50;0.93;;;;;;;;;;5058766;27;86993;-54
2022/10/17 02:11:26;;;;;;;1.47;1.20;;;;;;;;;;5047907;27;88770;-54
2022/10/17 02:13:59;;;;;;;0.90;0.63;;;;;;;;;;5061172;27;88023;-54
2022/10/17 02:16:30;;;;;;;3.13;0.70;;;;;;;;;;5047449;27;87142;-55
2022/10/17 02:19:02;;;;;;;1.97;0.80;;;;;;;;;;5042637;27;89109;-55
2022/10/17 02:21:32;;;;;;;1.20;0.70;;;;;;;;;;5049629;27;86970;-55
2022/10/17 02:24:01;;;;;;;1.10;1.00;;;;;;;;;;5052287;27;86895;-54
2022/10/17 02:26:31;;;;;;;1.67;0.60;;;;;;;;;;5044347;27;87082;-54
2022/10/17 02:29:02;;;;;;;0.80;0.80;;;;;;;;;;5050928;27;88990;-54
2022/10/17 02:31:31;;;;;;;2.37;0.97;;;;;;;;;;5042279;27;87619;-55
2022/10/17 02:34:00;;;;;;;0.97;0.93;;;;;;;;;;5053000;27;86888;-55
2022/10/17 02:36:31;;;;;;;1.60;1.20;;;;;;;;;;5061425;27;86971;-55
2022/10/17 02:38:59;;;;;;;2.27;1.40;;;;;;;;;;5062017;27;88843;-55
2022/10/17 02:41:28;;;;;;;2.10;1.10;;;;;;;;;;5061846;27;89897;-53
2022/10/17 02:44:01;;;;;;;0.73;0.67;;;;;;;;;;5050608;27;87181;-52
2022/10/17 02:46:29;;;;;;;1.50;1.17;;;;;;;;;;5059873;27;87099;-55
2022/10/17 02:48:58;;;;;;;3.33;0.90;;;;;;;;;;5060322;27;88136;-55
2022/10/17 02:51:28;;;;;;;1.80;1.30;;;;;;;;;;5050759;27;87706;-53
2022/10/17 02:54:00;;;;;;;2.60;1.40;;;;;;;;;;5051690;27;87234;-54
2022/10/17 02:56:29;;;;;;;1.73;1.27;;;;;;;;;;5062518;27;86520;-53
2022/10/17 02:58:58;;;;;;;1.83;1.17;;;;;;;;;;5059988;27;89215;-53
2022/10/17 03:01:26;;;;;;;2.00;1.70;;;;;;;;;;5060252;27;87379;-53
2022/10/17 03:04:04;;;;;;;1.47;1.20;;;;;;;;;;5051080;27;89863;-53
2022/10/17 03:06:33;;;;;;;1.87;1.23;;;;;;;;;;5050297;27;86901;-53
2022/10/17 03:09:02;;;;;;;2.27;1.40;;;;;;;;;;5061355;27;88981;-53
2022/10/17 03:11:30;;;;;;;1.83;1.10;;;;;;;;;;5053830;27;88269;-53
2022/10/17 03:13:59;;;;;;;2.10;1.00;;;;;;;;;;5044076;27;87162;-53
2022/10/17 03:16:27;;;;;;;2.23;1.27;;;;;;;;;;5055443;27;86955;-53
2022/10/17 03:18:55;;;;;;;1.60;0.97;;;;;;;;;;5061209;27;88048;-53
2022/10/17 03:21:23;;;;;;;5.00;1.60;;;;;;;;;;5060502;27;89024;-53
2022/10/17 03:23:52;;;;;;;2.70;1.83;;;;;;;;;;5052617;27;88144;-53
2022/10/17 03:26:21;;;;;;;2.93;1.40;;;;;;;;;;5053920;27;87140;-53
2022/10/17 03:28:49;;;;;;;1.37;1.20;;;;;;;;;;5059445;27;89174;-53
2022/10/17 03:31:21;;;;;;;2.43;1.40;;;;;;;;;;5059730;27;88658;-54
2022/10/17 03:33:49;;;;;;;1.70;1.30;;;;;;;;;;5041486;27;88795;-53
2022/10/17 03:36:18;;;;;;;2.90;1.37;;;;;;;;;;5040943;27;87041;-54
2022/10/17 03:38:46;;;;;;;2.80;1.43;;;;;;;;;;5040770;27;87895;-53
2022/10/17 03:41:15;;;;;;;3.13;1.67;;;;;;;;;;5040868;27;87790;-53
2022/10/17 03:43:44;;;;;;;2.10;1.43;;;;;;;;;;5040029;27;87085;-53
2022/10/17 03:46:12;;;;;;;3.07;1.60;;;;;;;;;;5041300;27;86326;-53
2022/10/17 03:48:41;;;;;;;1.70;1.33;;;;;;;;;;5040354;27;87053;-53
2022/10/17 03:51:10;;;;;;;1.63;1.20;;;;;;;;;;5040769;27;87515;-53
2022/10/17 03:53:38;;;;;;;1.67;1.13;;;;;;;;;;5039930;27;87989;-53
2022/10/17 03:56:10;;;;;;;2.90;1.47;;;;;;;;;;5041254;27;87079;-53
2022/10/17 03:58:39;;;;;;;1.97;1.60;;;;;;;;;;5040909;27;87895;-53
2022/10/17 04:01:09;;;;;;;2.50;1.87;;;;;;;;;;5056041;27;87910;-52
2022/10/17 04:03:37;;;;;;;3.10;1.87;;;;;;;;;;5057736;27;87007;-53
2022/10/17 04:06:06;;;;;;;1.97;1.40;;;;;;;;;;5046728;27;87037;-53
2022/10/17 04:08:34;;;;;;;2.60;1.60;;;;;;;;;;5041909;27;88089;-53
2022/10/17 04:11:02;;;;;;;2.73;1.60;;;;;;;;;;5052110;27;87618;-53
2022/10/17 04:13:31;;;;;;;2.47;1.47;;;;;;;;;;5050847;27;87073;-53
2022/10/17 04:15:59;;;;;;;2.33;1.37;;;;;;;;;;5057211;27;87126;-53
2022/10/17 04:18:29;;;;;;;3.37;1.50;;;;;;;;;;5056509;27;88569;-53
2022/10/17 04:20:57;;;;;;;2.70;1.77;;;;;;;;;;5061090;27;88498;-53
2022/10/17 04:23:26;;;;;;;3.33;1.27;;;;;;;;;;5056242;27;87140;-55
2022/10/17 04:25:56;;;;;;;3.67;1.20;;;;;;;;;;5058351;27;87053;-55
2022/10/17 04:28:24;;;;;;;3.67;2.00;;;;;;;;;;5046375;27;89234;-52
2022/10/17 04:30:56;;;;;;;1.20;0.97;;;;;;;;;;5058332;27;88800;-55
2022/10/17 04:33:24;;;;;;;2.13;1.07;;;;;;;;;;5046676;27;87157;-55
2022/10/17 04:35:58;;;;;;;2.47;1.37;;;;;;;;;;5048824;27;87299;-55
2022/10/17 04:38:26;;;;;;;2.83;1.80;;;;;;;;;;5050215;27;87005;-55
2022/10/17 04:40:57;;;;;;;2.10;1.60;;;;;;;;;;5061655;27;86891;-55
2022/10/17 04:43:25;;;;;;;4.10;1.57;;;;;;;;;;5051860;27;88171;-53
2022/10/17 04:45:54;;;;;;;1.87;1.13;;;;;;;;;;5062857;27;87155;-53
2022/10/17 04:48:22;;;;;;;3.80;1.93;;;;;;;;;;5051019;27;89188;-54
2022/10/17 04:50:54;;;;;;;2.47;1.33;;;;;;;;;;5057851;27;87746;-54
2022/10/17 04:53:23;;;;;;;2.40;1.20;;;;;;;;;;5046286;27;88091;-53
2022/10/17 04:55:52;;;;;;;2.47;1.63;;;;;;;;;;5045442;27;86972;-53
2022/10/17 04:58:20;;;;;;;1.50;1.30;;;;;;;;;;5043179;27;87874;-54
2022/10/17 05:00:48;;;;;;;4.63;1.93;;;;;;;;;;5043650;27;87600;-53
2022/10/17 05:03:16;;;;;;;2.30;1.67;;;;;;;;;;5042521;27;87112;-53
2022/10/17 05:05:45;;;;;;;3.87;1.67;;;;;;;;;;5043641;27;87039;-54
2022/10/17 05:08:13;;;;;;;2.27;1.57;;;;;;;;;;5043121;27;89056;-54
2022/10/17 05:10:43;;;;;;;1.80;1.00;;;;;;;;;;5042446;27;88748;-53
2022/10/17 05:13:11;;;;;;;2.97;1.20;;;;;;;;;;5043633;27;86999;-54
2022/10/17 05:15:40;;;;;;;1.83;1.17;;;;;;;;;;5049230;27;86999;-53
2022/10/17 05:18:08;;;;;;;4.50;2.20;;;;;;;;;;5051125;27;87859;-53
2022/10/17 05:20:36;;;;;;;1.93;1.13;;;;;;;;;;5043280;27;87514;-53
2022/10/17 05:23:04;;;;;;;1.73;1.50;;;;;;;;;;5044062;27;87165;-53
2022/10/17 05:25:33;;;;;;;1.93;1.10;;;;;;;;;;5056643;27;86333;-53
2022/10/17 05:28:02;;;;;;;1.57;1.27;;;;;;;;;;5043350;27;89035;-53
2022/10/17 05:30:30;;;;;;;1.40;1.30;;;;;;;;;;5042308;28;87381;-53
2022/10/17 05:33:04;;;;;;;1.60;1.37;;;;;;;;;;5042259;27;88020;-51
2022/10/17 05:35:33;;;;;;;1.80;1.20;;;;;;;;;;5043065;27;86938;-53
2022/10/17 05:38:01;;;;;;;2.87;1.60;;;;;;;;;;5041882;27;88099;-53
2022/10/17 05:40:29;;;;;;;2.43;1.27;;;;;;;;;;5042132;27;87797;-53
2022/10/17 05:42:57;;;;;;;1.27;1.10;;;;;;;;;;5061196;27;86958;-53
2022/10/17 05:45:27;;;;;;;1.87;1.27;;;;;;;;;;5055355;27;87089;-54
2022/10/17 05:47:55;;;;;;;2.00;1.60;;;;;;;;;;5041969;27;88773;-53
2022/10/17 05:50:24;;;;;;;2.17;1.30;;;;;;;;;;5041891;27;87717;-53
2022/10/17 05:52:53;;;;;;;1.23;1.13;;;;;;;;;;5042924;27;86830;-53
2022/10/17 05:55:22;;;;;;;1.47;1.07;;;;;;;;;;5042718;27;87088;-52
2022/10/17 05:57:51;;;;;;;2.60;1.97;;;;;;;;;;5041386;27;89109;-54
2022/10/17 06:00:19;;;;;;;1.27;1.10;;;;;;;;;;5041847;27;89618;-54
2022/10/17 06:02:49;;;;;;;2.17;1.43;;;;;;;;;;5042514;27;87240;-53
2022/10/17 06:05:17;;;;;;;5.10;1.47;;;;;;;;;;5042350;28;88945;-52
2022/10/17 06:07:46;;;;;;;1.47;0.97;;;;;;;;;;5042771;27;87959;-52
2022/10/17 06:10:15;;;;;;;3.43;1.23;;;;;;;;;;5042517;27;87843;-53
2022/10/17 06:12:43;;;;;;;1.67;1.17;;;;;;;;;;5042794;27;87497;-53
2022/10/17 06:15:12;;;;;;;1.50;1.10;;;;;;;;;;5042557;27;86205;-54
2022/10/17 06:17:40;;;;;;;1.37;0.87;;;;;;;;;;5042602;28;87046;-52
2022/10/17 06:20:11;;;;;;;1.70;1.30;;;;;;;;;;5055237;27;87461;-53
2022/10/17 06:22:39;;;;;;;2.93;1.93;;;;;;;;;;5057285;27;87953;-52
2022/10/17 06:25:08;;;;;;;1.07;0.97;;;;;;;;;;5043703;27;87118;-55
2022/10/17 06:27:36;;;;;;;1.63;1.43;;;;;;;;;;5048959;27;88188;-55
2022/10/17 06:30:05;;;;;;;1.87;1.00;;;;;;;;;;5062591;27;88700;-54
2022/10/17 06:32:34;;;;;;;1.17;1.03;;;;;;;;;;5062439;27;87005;-54
2022/10/17 06:35:02;;;;;;;3.67;1.87;;;;;;;;;;5045606;27;87127;-54
2022/10/17 06:37:32;;;;;;;1.60;1.30;;;;;;;;;;5042410;27;87743;-55
2022/10/17 06:40:04;;;;;;;1.20;0.90;;;;;;;;;;5042438;27;87803;-54
2022/10/17 06:42:32;;;;;;;2.40;1.13;;;;;;;;;;5047409;27;86936;-55
2022/10/17 06:45:01;;;;;;;1.73;1.33;;;;;;;;;;5054917;27;87003;-55
2022/10/17 06:47:29;;;;;;;1.33;1.20;;;;;;;;;;5054703;27;88824;-55
2022/10/17 06:49:58;;;;;;;2.17;1.40;;;;;;;;;;5060244;27;88840;-53
2022/10/17 06:52:28;;;;;;;0.97;0.93;;;;;;;;;;5060840;27;87571;-53
2022/10/17 06:54:57;;;;;;;5.70;1.90;;;;;;;;;;5050338;27;87403;-54
2022/10/17 06:57:26;;;;;;;1.30;1.13;;;;;;;;;;5062260;27;87039;-55
2022/10/17 06:59:56;;;;;;;1.23;1.00;;;;;;;;;;5047880;27;87983;-54
2022/10/17 07:02:24;;;;;;;2.00;1.10;;;;;;;;;;5054383;27;87050;-55
2022/10/17 07:04:53;;;;;;;3.43;1.30;;;;;;;;;;5045481;27;86377;-55
2022/10/17 07:07:21;;;;;;;5.23;1.40;;;;;;;;;;5041773;27;88048;-54
2022/10/17 07:09:49;;;;;;;1.87;1.67;;;;;;;;;;5041649;27;88704;-54
2022/10/17 07:12:19;;;;;;;1.20;1.00;;;;;;;;;;5041484;27;88061;-55
2022/10/17 07:14:49;;;;;;;1.73;1.17;;;;;;;;;;5041845;27;87055;-55
2022/10/17 07:17:17;;;;;;;3.43;1.60;;;;;;;;;;5042490;27;88084;-55
2022/10/17 07:19:46;;;;;;;1.50;1.20;;;;;;;;;;5042030;27;88924;-54
2022/10/17 07:22:14;;;;;;;2.40;1.37;;;;;;;;;;5060408;27;87047;-54
2022/10/17 07:24:42;;;;;;;1.70;0.97;;;;;;;;;;5056350;27;86863;-54
2022/10/17 07:27:10;;;;;;;2.23;1.47;;;;;;;;;;5051080;27;88395;-52
2022/10/17 07:29:40;;;;;;;1.33;1.23;;;;;;;;;;5060421;27;87839;-55
2022/10/17 07:32:09;;;;;;;2.63;1.57;;;;;;;;;;5059827;27;87186;-55
2022/10/17 07:34:37;;;;;;;1.20;1.10;;;;;;;;;;5055564;27;86869;-54
2022/10/17 07:37:06;;;;;;;2.03;1.80;;;;;;;;;;5040909;27;89840;-55
2022/10/17 07:39:35;;;;;;;1.13;1.03;;;;;;;;;;5041883;27;88510;-54
2022/10/17 07:42:03;;;;;;;1.93;1.37;;;;;;;;;;5056139;27;86831;-54
2022/10/17 07:44:31;;;;;;;2.77;1.53;;;;;;;;;;5060446;27;87252;-55
2022/10/17 07:47:01;;;;;;;1.33;1.10;;;;;;;;;;5061627;27;87864;-55
2022/10/17 07:49:29;;;;;;;2.33;1.20;;;;;;;;;;5058644;27;87631;-55
2022/10/17 07:51:58;;;;;;;1.67;1.10;;;;;;;;;;5060179;27;87010;-55
2022/10/17 07:54:26;;;;;;;2.03;1.30;;;;;;;;;;5060160;27;86314;-55
2022/10/17 07:56:54;;;;;;;1.70;1.30;;;;;;;;;;5052352;27;88157;-55
2022/10/17 07:59:23;;;;;;;1.47;1.37;;;;;;;;;;5047040;27;87784;-55
2022/10/17 08:01:51;;;;;;;1.63;1.40;;;;;;;;;;5056587;27;88032;-55
2022/10/17 08:04:22;;;;;;;2.20;1.20;;;;;;;;;;5045396;27;87106;-55
2022/10/17 08:06:51;;;;;;;2.17;1.27;;;;;;;;;;5044378;27;87972;-52
2022/10/17 08:09:27;;;;;;;3.13;1.43;;;;;;;;;;5044902;27;87726;-55
2022/10/17 08:11:56;;;;;;;3.13;1.40;;;;;;;;;;5045187;27;86769;-52
2022/10/17 08:14:24;;;;;;;1.23;0.97;;;;;;;;;;5044794;27;86994;-55
2022/10/17 08:16:54;;;;;;;2.30;1.40;;;;;;;;;;5056461;27;87958;-54
2022/10/17 08:19:24;;;;;;;2.13;1.37;;;;;;;;;;5052432;27;87654;-55
2022/10/17 08:21:53;;;;;;;2.13;1.60;;;;;;;;;;5049422;27;87105;-55
2022/10/17 08:24:21;;;;;;;1.23;1.13;;;;;;;;;;5044992;27;87117;-55
2022/10/17 08:26:52;;;;;;;2.43;1.10;;;;;;;;;;5044118;27;90088;-55
2022/10/17 08:29:20;;;;;;;2.00;1.50;;;;;;;;;;5044327;27;89645;-54
2022/10/17 08:31:48;;;;;;;3.43;1.80;;;;;;;;;;5044320;27;87031;-52
2022/10/17 08:34:24;;;;;;;4.53;1.13;;;;;;;;;;5044116;27;87101;-54
2022/10/17 08:36:53;;;;;;;2.03;0.90;;;;;;;;;;5044748;27;87821;-55
2022/10/17 08:39:21;;;;;;;3.40;1.63;;;;;;;;;;5044752;27;87955;-55
2022/10/17 08:41:53;;;;;;;2.10;1.37;;;;;;;;;;5044253;27;87434;-55
2022/10/17 08:44:25;;;;;;;1.43;1.33;;;;;;;;;;5044456;27;86252;-54
2022/10/17 08:46:55;;;;;;;1.80;0.90;;;;;;;;;;5044341;27;90371;-53
2022/10/17 08:49:26;;;;;;;1.77;1.20;;;;;;;;;;5043855;28;87973;-53
2022/10/17 08:51:56;;;;;;;1.13;1.03;;;;;;;;;;5043570;28;87979;-53
2022/10/17 08:54:26;;;;;;;1.23;1.10;;;;;;;;;;5053127;27;86933;-53
2022/10/17 08:56:54;;;;;;;1.30;1.17;;;;;;;;;;5053620;27;87870;-53
2022/10/17 08:59:28;;;;;;;1.90;1.00;;;;;;;;;;5043668;27;87875;-52
2022/10/17 09:01:57;;;;;;;2.20;1.50;;;;;;;;;;5044891;27;88406;-53
2022/10/17 09:04:34;;;;;;;1.90;1.50;;;;;;;;;;5055485;27;86945;-53
2022/10/17 09:07:05;;;;;;;3.60;1.80;;;;;;;;;;5064327;27;88455;-52
2022/10/17 09:09:35;;;;;;;1.90;1.10;;;;;;;;;;5064406;27;87656;-53
2022/10/17 09:12:05;;;;;;;1.73;1.00;;;;;;;;;;5064321;27;87033;-53
2022/10/17 09:14:57;;;;;;;3.17;1.33;;;;;;;;;;5064235;27;87030;-53
2022/10/17 09:17:29;;;;;;;2.93;1.77;;;;;;;;;;5034957;28;89022;-52
2022/10/17 09:20:01;;;;;;;1.30;1.20;;;;;;;;;;5043312;27;90112;-53
2022/10/17 09:22:31;;;;;;;1.33;1.03;;;;;;;;;;5044624;27;87023;-53
2022/10/17 09:25:02;;;;;;;2.53;1.90;;;;;;;;;;5044574;27;87057;-54
2022/10/17 09:27:33;;;;;;;1.67;1.10;;;;;;;;;;5056151;27;87878;-54
2022/10/17 09:30:03;;;;;;;2.57;1.40;;;;;;;;;;5055012;27;87959;-54
2022/10/17 09:32:31;;;;;;;3.23;1.37;;;;;;;;;;5058730;27;86914;-54
2022/10/17 09:35:01;;;;;;;1.50;0.97;;;;;;;;;;5064357;27;86234;-57
2022/10/17 09:37:30;;;;;;;1.37;1.27;;;;;;;;;;5063795;27;88015;-54
2022/10/17 09:39:59;;;;;;;1.00;1.00;;;;;;;;;;5063950;27;88870;-53
2022/10/17 09:42:27;;;;;;;1.33;1.07;;;;;;;;;;5054628;27;87955;-53
2022/10/17 09:44:56;;;;;;;1.93;1.30;;;;;;;;;;5043407;27;86872;-54
2022/10/17 09:47:26;;;;;;;4.10;1.90;;;;;;;;;;5044215;27;88238;-53
2022/10/17 09:49:55;;;;;;;1.23;1.13;;;;;;;;;;5054134;27;87774;-54
2022/10/17 09:52:26;;;;;;;4.67;1.63;;;;;;;;;;5044288;27;87004;-54
2022/10/17 09:54:56;;;;;;;3.53;1.60;;;;;;;;;;5045442;27;87081;-54
2022/10/17 09:57:25;;;;;;;2.70;1.60;;;;;;;;;;5043340;27;87895;-53
2022/10/17 09:59:57;;;;;;;0.90;0.83;;;;;;;;;;5052558;27;87509;-53
2022/10/17 10:02:26;;;;;;;2.00;1.50;;;;;;;;;;5062246;27;87122;-54
2022/10/17 10:04:56;;;;;;;1.53;1.37;;;;;;;;;;5067736;27;87080;-53
2022/10/17 10:07:33;;;;;;;2.10;1.40;;;;;;;;;;5061890;27;88997;-53
2022/10/17 10:10:02;;;;;;;4.03;1.57;;;;;;;;;;5057160;27;89748;-53
2022/10/17 10:12:31;;;;;;;5.07;1.30;;;;;;;;;;5043833;27;87168;-53
2022/10/17 10:15:00;;;;;;;2.20;1.37;;;;;;;;;;5056457;27;87130;-53
2022/10/17 10:17:29;;;;;;;3.30;1.27;;;;;;;;;;5051155;27;87071;-53
2022/10/17 10:19:58;;;;;;;2.07;1.53;;;;;;;;;;5044425;27;87629;-53
2022/10/17 10:22:26;;;;;;;2.63;1.40;;;;;;;;;;5041066;27;87030;-53
2022/10/17 10:25:08;;;;;;;2.50;1.40;;;;;;;;;;5042312;27;87414;-53
2022/10/17 10:27:37;;;;;;;2.73;1.80;;;;;;;;;;5041570;27;88465;-53
2022/10/17 10:30:05;;;;;;;1.83;1.13;;;;;;;;;;5041355;27;87186;-53
2022/10/17 10:32:34;;;;;;;2.77;1.83;;;;;;;;;;5040462;27;88078;-53
2022/10/17 10:35:03;;;;;;;1.37;1.27;;;;;;;;;;5041673;27;87090;-53
2022/10/17 10:37:34;;;;;;;1.70;1.60;;;;;;;;;;5041582;27;88178;-53
2022/10/17 10:40:02;;;;;;;2.30;1.03;;;;;;;;;;5041478;27;88769;-53
2022/10/17 10:42:34;;;;;;;2.03;1.87;;;;;;;;;;5041364;27;87052;-53
2022/10/17 10:45:03;;;;;;;2.30;1.57;;;;;;;;;;5055172;27;87544;-53
2022/10/17 10:47:31;;;;;;;2.10;1.73;;;;;;;;;;5060438;27;87927;-53
2022/10/17 10:50:16;;;;;;;2.70;2.33;;;;;;;;;;5049950;27;87776;-53
2022/10/17 10:52:46;;;;;;;2.83;1.80;;;;;;;;;;5061769;27;86957;-53
2022/10/17 10:55:21;;;;;;;3.43;1.90;;;;;;;;;;5046892;27;87087;-53
2022/10/17 10:57:51;;;;;;;2.37;1.80;;;;;;;;;;5040426;27;89899;-53
2022/10/17 11:00:20;;;;;;;2.90;1.73;;;;;;;;;;5041140;27;89787;-54
2022/10/17 11:02:52;;;;;;;2.00;1.43;;;;;;;;;;5041571;28;87077;-53
2022/10/17 11:05:22;;;;;;;3.77;1.47;;;;;;;;;;5041071;28;87002;-53
2022/10/17 11:07:52;;;;;;;2.83;1.90;;;;;;;;;;5059327;27;88036;-53
2022/10/17 11:10:22;;;;;;;2.83;1.73;;;;;;;;;;5061302;27;88163;-53
2022/10/17 11:12:53;;;;;;;2.27;1.80;;;;;;;;;;5060844;27;87125;-52
2022/10/17 11:15:22;;;;;;;2.33;1.37;;;;;;;;;;5061454;27;86586;-53
2022/10/17 11:17:52;;;;;;;2.37;1.90;;;;;;;;;;5061069;27;87744;-53
2022/10/17 11:20:22;;;;;;;1.77;1.30;;;;;;;;;;5060444;27;88512;-53
2022/10/17 11:22:52;;;;;;;3.97;2.10;;;;;;;;;;5049029;27;88049;-53
2022/10/17 11:25:23;;;;;;;3.43;1.80;;;;;;;;;;5061378;27;87027;-53
2022/10/17 11:27:53;;;;;;;2.80;1.53;;;;;;;;;;5060621;27;88204;-53
2022/10/17 11:30:21;;;;;;;2.43;1.70;;;;;;;;;;5060464;27;88101;-53
2022/10/17 11:32:49;;;;;;;2.40;1.40;;;;;;;;;;5060956;27;87089;-53
2022/10/17 11:35:19;;;;;;;3.80;2.10;;;;;;;;;;5065129;27;87047;-53
2022/10/17 11:37:48;;;;;;;4.43;2.40;;;;;;;;;;5067198;27;87034;-53
2022/10/17 11:40:18;;;;;;;2.43;1.73;;;;;;;;;;5062587;27;86482;-53
2022/10/17 11:42:54;;;;;;;1.87;1.30;;;;;;;;;;5067482;27;87060;-53
2022/10/17 11:45:22;;;;;;;3.37;1.60;;;;;;;;;;5067359;27;87027;-53
2022/10/17 11:47:53;;;;;;;2.63;1.77;;;;;;;;;;5066734;27;88003;-53
2022/10/17 11:50:22;;;;;;;2.43;1.40;;;;;;;;;;5067561;27;89037;-53
2022/10/17 11:53:12;;;;;;;2.73;1.10;;;;;;;;;;5067838;27;87198;-53
2022/10/17 11:55:41;;;;;;;1.60;1.30;;;;;;;;;;5068040;27;87091;-53
2022/10/17 11:58:19;;;;;;;1.93;1.70;;;;;;;;;;5067407;27;88240;-53
2022/10/17 12:00:51;;;;;;;4.63;2.17;;;;;;;;;;5066977;27;88746;-53
2022/10/17 12:03:40;;;;;;;1.50;1.40;;;;;;;;;;5067753;27;86973;-53
2022/10/17 12:06:11;;;;;;;3.33;2.00;;;;;;;;;;5063482;27;86347;-53
2022/10/17 12:08:41;;;;;;;3.57;1.93;;;;;;;;;;5066947;27;87954;-52
2022/10/17 12:11:11;;;;;;;5.17;1.90;;;;;;;;;;5067353;27;87076;-53
2022/10/17 12:13:51;;;;;;;3.63;1.90;;;;;;;;;;5066660;27;88031;-53
2022/10/17 12:16:39;;;;;;;3.40;1.73;;;;;;;;;;5055508;27;86991;-53
2022/10/17 12:19:22;;;;;;;3.67;2.07;;;;;;;;;;5046583;27;87872;-53
2022/10/17 12:21:58;;;;;;;2.60;1.40;;;;;;;;;;5047067;27;88009;-53
2022/10/17 12:24:44;;;;;;;2.57;1.60;;;;;;;;;;5047006;27;87129;-53
2022/10/17 12:27:22;;;;;;;3.17;1.63;;;;;;;;;;5047073;27;86979;-53
2022/10/17 12:29:51;;;;;;;2.77;1.70;;;;;;;;;;5047001;27;87920;-52
2022/10/17 12:32:20;;;;;;;2.83;1.60;;;;;;;;;;5046383;27;86533;-53
2022/10/17 12:34:52;;;;;;;2.47;1.40;;;;;;;;;;5046340;27;87062;-53
2022/10/17 12:37:35;;;;;;;4.47;2.07;;;;;;;;;;5049162;27;87067;-53
2022/10/17 12:40:04;;;;;;;17.67;5.27;;;;;;;;;;5048102;27;88754;-54
2022/10/17 12:42:49;;;;;;;23.00;9.67;;;;;;;;;;5046614;27;88847;-55
2022/10/17 12:45:35;;;;;;;23.20;11.80;;;;;;;;;;5066471;27;87119;-53
2022/10/17 12:48:07;;;;;;;21.97;10.57;;;;;;;;;;5062712;27;87060;-52
2022/10/17 12:50:53;;;;;;;52.83;19.07;;;;;;;;;;5061763;27;88068;-53
2022/10/17 12:53:25;;;;;;;61.60;25.23;;;;;;;;;;5063018;27;88278;-53
2022/10/17 12:55:59;;;;;;;64.83;25.13;;;;;;;;;;5063336;27;87185;-53
2022/10/17 12:58:27;;;;;;;39.27;19.17;;;;;;;;;;5061998;27;86466;-53
2022/10/17 13:00:56;;;;;;;50.93;19.17;;;;;;;;;;5058546;27;87935;-53
2022/10/17 13:03:46;;;;;;;42.37;17.47;;;;;;;;;;5054499;27;87697;-53
2022/10/17 13:06:16;;;;;;;33.93;16.60;;;;;;;;;;5041808;27;87922;-53
2022/10/17 13:08:45;;;;;;;37.50;15.90;;;;;;;;;;5051774;27;86903;-53
2022/10/17 13:11:20;;;;;;;33.33;14.70;;;;;;;;;;5062459;27;88089;-53
2022/10/17 13:13:49;;;;;;;30.20;12.63;;;;;;;;;;5062301;27;87097;-53
2022/10/17 13:16:27;;;;;;;28.93;11.80;;;;;;;;;;5061954;27;87375;-53
2022/10/17 13:18:57;;;;;;;28.47;12.23;;;;;;;;;;5042183;27;86949;-53
2022/10/17 13:21:26;;;;;;;24.03;12.23;;;;;;;;;;5041879;27;87120;-53
2022/10/17 13:23:54;;;;;;;29.80;11.47;;;;;;;;;;5041569;27;87737;-53
2022/10/17 13:26:23;;;;;;;24.73;8.23;;;;;;;;;;5041119;28;87163;-52
2022/10/17 13:29:04;;;;;;;21.93;8.60;;;;;;;;;;5042449;27;87075;-52
2022/10/17 13:31:33;;;;;;;13.33;8.03;;;;;;;;;;5041776;27;89008;-52
2022/10/17 13:34:03;;;;;;;14.77;7.13;;;;;;;;;;5042374;27;88926;-52
2022/10/17 13:36:32;;;;;;;15.73;6.03;;;;;;;;;;5042972;27;86968;-52
2022/10/17 13:39:00;;;;;;;15.43;5.70;;;;;;;;;;5049529;27;87122;-53
2022/10/17 13:41:29;;;;;;;10.27;6.43;;;;;;;;;;5042455;27;88275;-52
2022/10/17 13:44:04;;;;;;;9.87;4.73;;;;;;;;;;5048026;27;88869;-52
2022/10/17 13:46:33;;;;;;;12.83;6.40;;;;;;;;;;5050166;27;87081;-52
2022/10/17 13:49:12;;;;;;;8.03;4.67;;;;;;;;;;5042673;27;86312;-52
2022/10/17 13:51:43;;;;;;;19.63;4.70;;;;;;;;;;5042335;28;87943;-52
2022/10/17 13:54:27;;;;;;;8.10;4.43;;;;;;;;;;5042224;27;87322;-52
2022/10/17 13:56:56;;;;;;;7.50;3.93;;;;;;;;;;5040993;27;87929;-53
2022/10/17 13:59:25;;;;;;;7.83;3.77;;;;;;;;;;5040913;27;87121;-53
2022/10/17 14:01:54;;;;;;;13.03;4.00;;;;;;;;;;5045463;27;87125;-52
2022/10/17 14:04:24;;;;;;;6.37;4.10;;;;;;;;;;5062196;27;88928;-52
2022/10/17 14:06:52;;;;;;;7.33;3.23;;;;;;;;;;5062608;27;87060;-52
2022/10/17 14:09:22;;;;;;;6.40;3.50;;;;;;;;;;5062493;27;87086;-52
2022/10/17 14:11:57;;;;;;;4.90;4.10;;;;;;;;;;5049770;27;88208;-52
2022/10/17 14:14:25;;;;;;;7.13;3.20;;;;;;;;;;5062226;27;87624;-52
2022/10/17 14:16:54;;;;;;;8.73;3.33;;;;;;;;;;5052945;27;86990;-52
2022/10/17 14:19:26;;;;;;;3.27;2.80;;;;;;;;;;5042135;27;87171;-52
2022/10/17 14:21:55;;;;;;;9.40;3.40;;;;;;;;;;5041176;27;88823;-54
2022/10/17 14:24:28;;;;;;;5.50;2.67;;;;;;;;;;5044079;27;89934;-54
2022/10/17 14:26:57;;;;;;;7.77;2.93;;;;;;;;;;5057592;27;86997;-54
2022/10/17 14:29:26;;;;;;;3.60;2.47;;;;;;;;;;5061041;27;87023;-54
2022/10/17 14:31:58;;;;;;;8.50;2.93;;;;;;;;;;5061417;27;88743;-53
2022/10/17 14:34:29;;;;;;;4.17;2.07;;;;;;;;;;5061470;27;87665;-52
2022/10/17 14:36:57;;;;;;;4.03;2.03;;;;;;;;;;5060817;27;87425;-52
2022/10/17 14:39:26;;;;;;;6.93;2.53;;;;;;;;;;5062531;27;86255;-52
2022/10/17 14:41:54;;;;;;;3.10;1.93;;;;;;;;;;5061850;27;88052;-54
2022/10/17 14:44:24;;;;;;;7.20;3.03;;;;;;;;;;5061508;27;88599;-53
2022/10/17 14:46:53;;;;;;;5.13;1.87;;;;;;;;;;5060697;27;87999;-53
2022/10/17 14:49:24;;;;;;;3.03;2.17;;;;;;;;;;5061383;27;87047;-53
2022/10/17 14:52:13;;;;;;;2.03;1.70;;;;;;;;;;5061422;27;88004;-52
2022/10/17 14:54:46;;;;;;;5.63;2.37;;;;;;;;;;5060955;27;88909;-53
2022/10/17 14:57:15;;;;;;;3.20;1.73;;;;;;;;;;5061488;27;86980;-53
2022/10/17 14:59:44;;;;;;;4.50;2.03;;;;;;;;;;5061398;27;86981;-53